createdAt,value
2019-05-18T00:00:55.881Z,101487.55
2019-05-18T00:03:25.210Z,101481.24
2019-05-18T00:05:54.513Z,101476.24
2019-05-18T00:08:23.927Z,101474.59
2019-05-18T00:10:53.238Z,101474.62
2019-05-18T00:13:22.568Z,101471.81
2019-05-18T00:15:52.256Z,101471.84
2019-05-18T00:18:21.590Z,101472.92
2019-05-18T00:20:51.052Z,101469.31
2019-05-18T00:23:20.622Z,101475.67
2019-05-18T00:25:50.134Z,101476.75
2019-05-18T00:28:19.496Z,101470.98
2019-05-18T00:30:49.474Z,101470.19
2019-05-18T00:33:18.844Z,101460.84
2019-05-18T00:35:48.166Z,101473.48
2019-05-18T00:38:17.676Z,101472.92
2019-05-18T00:40:47.001Z,101473.74
2019-05-18T00:43:16.361Z,101474.88
2019-05-18T00:45:45.989Z,101476.50
2019-05-18T00:48:15.248Z,101480.66
2019-05-18T00:50:44.599Z,101484.45
2019-05-18T00:53:14.277Z,101488.59
2019-05-18T00:55:43.572Z,101484.73
2019-05-18T00:58:12.870Z,101485.01
2019-05-18T01:00:42.700Z,101489.14
2019-05-18T01:03:11.967Z,101485.29
2019-05-18T01:05:41.310Z,101490.80
2019-05-18T01:08:10.673Z,101488.54
2019-05-18T01:10:39.967Z,101479.16
2019-05-18T01:13:09.305Z,101481.09
2019-05-18T01:15:38.837Z,101487.14
2019-05-18T01:18:08.164Z,101486.32
2019-05-18T01:20:37.478Z,101486.59
2019-05-18T01:23:06.986Z,101488.80
2019-05-18T01:25:36.293Z,101489.88
2019-05-18T01:28:05.614Z,101489.05
2019-05-18T01:30:35.109Z,101495.66
2019-05-18T01:33:04.482Z,101494.60
2019-05-18T01:35:33.827Z,101486.82
2019-05-18T01:38:03.194Z,101494.78
2019-05-18T01:40:32.660Z,101502.20
2019-05-18T01:43:02.066Z,101494.53
2019-05-18T01:45:33.126Z,101501.71
2019-05-18T01:48:13.366Z,101496.20
2019-05-18T01:50:33.499Z,101493.23
2019-05-18T01:53:03.223Z,101493.75
2019-05-18T01:55:32.586Z,101493.75
2019-05-18T01:58:01.894Z,101496.23
2019-05-18T02:00:31.408Z,101493.20
2019-05-18T02:03:00.703Z,101493.20
2019-05-18T02:05:30.106Z,101496.55
2019-05-18T02:07:59.720Z,101492.92
2019-05-18T02:10:29.030Z,101493.73
2019-05-18T02:12:58.304Z,101493.42
2019-05-18T02:15:27.910Z,101496.20
2019-05-18T02:17:57.189Z,101496.20
2019-05-18T02:20:26.536Z,101500.88
2019-05-18T02:22:56.258Z,101500.61
2019-05-18T02:25:25.550Z,101506.91
2019-05-18T02:27:54.838Z,101511.05
2019-05-18T02:30:24.397Z,101509.17
2019-05-18T02:32:53.750Z,101501.44
2019-05-18T02:35:23.049Z,101500.61
2019-05-18T02:37:54.224Z,101496.23
2019-05-18T02:40:23.581Z,101505.59
2019-05-18T02:42:53.120Z,101519.62
2019-05-18T02:45:22.786Z,101511.34
2019-05-18T02:47:52.040Z,101513.30
2019-05-18T02:50:21.348Z,101513.27
2019-05-18T02:52:50.841Z,101516.05
2019-05-18T02:55:20.216Z,101514.97
2019-05-18T02:57:49.537Z,101516.30
2019-05-18T03:00:19.258Z,101505.04
2019-05-18T03:02:48.542Z,101507.19
2019-05-18T03:05:17.857Z,101502.76
2019-05-18T03:07:47.722Z,101504.13
2019-05-18T03:10:17.402Z,101507.44
2019-05-18T03:12:46.932Z,101509.39
2019-05-18T03:15:17.031Z,101507.73
2019-05-18T03:17:46.367Z,101511.87
2019-05-18T03:20:15.857Z,101524.81
2019-05-18T03:25:13.732Z,101526.16
2019-05-18T03:27:42.988Z,101520.38
2019-05-18T03:30:12.604Z,101513.74
2019-05-18T03:32:42.058Z,101518.45
2019-05-18T03:35:11.481Z,101524.50
2019-05-18T03:37:40.849Z,101525.63
2019-05-18T03:40:10.458Z,101521.25
2019-05-18T03:42:39.812Z,101515.72
2019-05-18T03:45:09.526Z,101519.30
2019-05-18T03:47:38.973Z,101519.58
2019-05-18T03:50:08.714Z,101520.41
2019-05-18T03:52:38.228Z,101512.97
2019-05-18T03:55:08.010Z,101509.14
2019-05-18T03:57:37.367Z,101500.33
2019-05-18T04:00:08.189Z,101498.76
2019-05-18T04:02:37.509Z,101499.86
2019-05-18T04:05:07.130Z,101503.73
2019-05-18T04:07:36.504Z,101501.23
2019-05-18T04:10:06.175Z,101504.84
2019-05-18T04:12:35.536Z,101508.16
2019-05-18T04:15:05.471Z,101505.46
2019-05-18T04:17:35.022Z,101505.46
2019-05-18T04:20:04.685Z,101509.03
2019-05-18T04:22:34.089Z,101505.20
2019-05-18T04:25:03.605Z,101498.56
2019-05-18T04:27:33.018Z,101500.24
2019-05-18T04:30:02.394Z,101492.00
2019-05-18T04:32:31.664Z,101495.05
2019-05-18T04:35:00.924Z,101505.52
2019-05-18T04:37:30.255Z,101500.84
2019-05-18T04:39:59.699Z,101499.20
2019-05-18T04:42:28.975Z,101503.08
2019-05-18T04:44:58.319Z,101511.34
2019-05-18T04:47:27.780Z,101513.27
2019-05-18T04:50:05.243Z,101506.67
2019-05-18T04:52:28.278Z,101505.31
2019-05-18T04:54:57.696Z,101511.89
2019-05-18T04:57:26.989Z,101505.56
2019-05-18T04:59:56.410Z,101504.17
2019-05-18T05:02:25.926Z,101504.37
2019-05-18T05:04:56.672Z,101506.32
2019-05-18T05:07:26.433Z,101509.34
2019-05-18T05:09:55.784Z,101502.51
2019-05-18T05:12:25.057Z,101504.43
2019-05-18T05:14:54.441Z,101504.47
2019-05-18T05:17:23.757Z,101500.36
2019-05-18T05:19:53.196Z,101500.92
2019-05-18T05:22:22.957Z,101509.77
2019-05-18T05:24:52.556Z,101506.76
2019-05-18T05:27:21.875Z,101513.67
2019-05-18T05:29:51.448Z,101504.86
2019-05-18T05:32:20.716Z,101502.13
2019-05-18T05:34:50.187Z,101512.33
2019-05-18T05:37:20.051Z,101508.48
2019-05-18T05:39:49.391Z,101513.73
2019-05-18T05:42:19.016Z,101510.44
2019-05-18T05:44:48.527Z,101512.33
2019-05-18T05:47:18.029Z,101509.28
2019-05-18T05:49:47.312Z,101512.03
2019-05-18T05:52:16.673Z,101509.28
2019-05-18T05:54:46.269Z,101510.59
2019-05-18T05:57:15.599Z,101505.63
2019-05-18T05:59:44.969Z,101505.94
2019-05-18T06:02:14.445Z,101512.86
2019-05-18T06:04:43.752Z,101509.55
2019-05-18T06:07:13.197Z,101512.87
2019-05-18T06:09:42.647Z,101511.54
2019-05-18T06:12:11.952Z,101505.42
2019-05-18T06:14:41.332Z,101512.83
2019-05-18T06:17:10.971Z,101513.86
2019-05-18T06:19:40.342Z,101506.69
2019-05-18T06:22:09.787Z,101517.20
2019-05-18T06:24:39.562Z,101508.91
2019-05-18T06:27:08.825Z,101513.08
2019-05-18T06:29:38.120Z,101514.77
2019-05-18T06:32:07.876Z,101524.41
2019-05-18T06:34:37.382Z,101533.78
2019-05-18T06:37:06.821Z,101527.78
2019-05-18T06:39:36.227Z,101536.36
2019-05-18T06:42:05.564Z,101539.94
2019-05-18T06:44:35.000Z,101545.45
2019-05-18T06:47:04.431Z,101541.87
2019-05-18T06:49:33.776Z,101542.15
2019-05-18T06:52:03.618Z,101548.28
2019-05-18T06:54:33.243Z,101545.54
2019-05-18T06:57:03.645Z,101553.02
2019-05-18T06:59:33.510Z,101551.89
2019-05-18T07:02:02.937Z,101547.20
2019-05-18T07:04:32.319Z,101554.39
2019-05-18T07:07:01.778Z,101554.67
2019-05-18T07:09:31.088Z,101544.44
2019-05-18T07:12:00.397Z,101550.80
2019-05-18T07:14:29.845Z,101556.32
2019-05-18T07:16:59.762Z,101550.27
2019-05-18T07:19:29.041Z,101548.87
2019-05-18T07:21:58.441Z,101540.59
2019-05-18T07:24:27.889Z,101542.81
2019-05-18T07:26:57.248Z,101547.76
2019-05-18T07:29:26.648Z,101545.03
2019-05-18T07:31:55.994Z,101551.08
2019-05-18T07:34:26.696Z,101545.58
2019-05-18T07:36:56.162Z,101545.02
2019-05-18T07:39:25.531Z,101540.61
2019-05-18T07:41:54.774Z,101533.16
2019-05-18T07:44:24.146Z,101540.88
2019-05-18T07:46:54.134Z,101545.02
2019-05-18T07:49:23.543Z,101543.34
2019-05-18T07:51:52.892Z,101549.41
2019-05-18T07:54:22.358Z,101549.95
2019-05-18T07:56:51.661Z,101559.11
2019-05-18T07:59:21.029Z,101551.34
2019-05-18T08:01:50.606Z,101548.02
2019-05-18T08:04:19.856Z,101536.45
2019-05-18T08:06:49.477Z,101539.22
2019-05-18T08:09:18.924Z,101545.29
2019-05-18T08:11:48.252Z,101541.13
2019-05-18T08:14:17.710Z,101540.02
2019-05-18T08:16:47.306Z,101542.80
2019-05-18T08:19:16.634Z,101538.61
2019-05-18T08:21:53.380Z,101534.46
2019-05-18T08:24:17.545Z,101530.33
2019-05-18T08:26:46.933Z,101541.09
2019-05-18T08:29:16.331Z,101542.50
2019-05-18T08:31:46.273Z,101546.66
2019-05-18T08:34:15.588Z,101551.63
2019-05-18T08:36:45.475Z,101557.99
2019-05-18T08:39:14.916Z,101561.03
2019-05-18T08:41:44.276Z,101561.31
2019-05-18T08:44:13.601Z,101559.37
2019-05-18T08:46:43.120Z,101552.75
2019-05-18T08:49:12.400Z,101554.65
2019-05-18T08:51:41.813Z,101558.24
2019-05-18T08:54:11.637Z,101561.53
2019-05-18T08:56:41.377Z,101562.06
2019-05-18T08:59:10.757Z,101555.46
2019-05-18T09:01:40.440Z,101561.02
2019-05-18T09:04:09.729Z,101555.51
2019-05-18T09:06:39.040Z,101546.66
2019-05-18T09:09:08.962Z,101546.36
2019-05-18T09:11:38.302Z,101552.97
2019-05-18T09:14:07.763Z,101552.72
2019-05-18T09:16:37.480Z,101562.12
2019-05-18T09:19:06.794Z,101553.55
2019-05-18T09:21:36.249Z,101551.36
2019-05-18T09:24:05.902Z,101551.92
2019-05-18T09:26:35.507Z,101559.91
2019-05-18T09:29:05.152Z,101557.98
2019-05-18T09:31:34.841Z,101557.45
2019-05-18T09:34:04.149Z,101561.86
2019-05-18T09:36:33.790Z,101545.00
2019-05-18T09:39:04.270Z,101558.83
2019-05-18T09:41:33.579Z,101567.38
2019-05-18T09:44:03.363Z,101564.34
2019-05-18T09:46:33.258Z,101558.82
2019-05-18T09:49:02.664Z,101566.27
2019-05-18T09:51:32.109Z,101561.57
2019-05-18T09:54:02.075Z,101556.89
2019-05-18T09:56:31.334Z,101570.40
2019-05-18T09:59:00.674Z,101574.80
2019-05-18T10:01:30.326Z,101572.89
2019-05-18T10:03:59.690Z,101584.75
2019-05-18T10:06:31.433Z,101575.33
2019-05-18T10:09:01.306Z,101573.38
2019-05-18T10:11:37.650Z,101567.33
2019-05-18T10:14:02.249Z,101574.48
2019-05-18T10:16:31.528Z,101570.39
2019-05-18T10:19:00.790Z,101569.01
2019-05-18T10:21:30.718Z,101567.88
2019-05-18T10:24:00.094Z,101572.32
2019-05-18T10:26:29.402Z,101575.11
2019-05-18T10:28:59.168Z,101578.97
2019-05-18T10:31:28.493Z,101572.91
2019-05-18T10:33:57.804Z,101572.89
2019-05-18T10:36:27.144Z,101574.27
2019-05-18T10:38:56.470Z,101571.52
2019-05-18T10:41:26.375Z,101572.34
2019-05-18T10:43:56.652Z,101570.11
2019-05-18T10:46:26.186Z,101564.27
2019-05-18T10:48:55.482Z,101565.64
2019-05-18T10:51:24.852Z,101560.12
2019-05-18T10:53:54.208Z,101567.04
2019-05-18T10:56:23.633Z,101570.09
2019-05-18T10:58:53.365Z,101574.80
2019-05-18T11:01:22.727Z,101565.39
2019-05-18T11:03:51.982Z,101570.94
2019-05-18T11:06:21.886Z,101570.67
2019-05-18T11:08:51.231Z,101563.72
2019-05-18T11:11:20.488Z,101570.92
2019-05-18T11:13:50.197Z,101573.37
2019-05-18T11:16:19.700Z,101574.94
2019-05-18T11:18:49.068Z,101575.55
2019-05-18T11:21:18.602Z,101567.44
2019-05-18T11:23:48.187Z,101566.99
2019-05-18T11:26:17.455Z,101567.55
2019-05-18T11:28:47.019Z,101562.84
2019-05-18T11:31:16.302Z,101559.25
2019-05-18T11:33:45.598Z,101544.82
2019-05-18T11:36:15.192Z,101545.58
2019-05-18T11:38:44.540Z,101544.78
2019-05-18T11:41:13.817Z,101542.39
2019-05-18T11:43:43.110Z,101545.16
2019-05-18T11:46:12.407Z,101541.05
2019-05-18T11:48:41.734Z,101537.84
2019-05-18T11:51:11.308Z,101534.77
2019-05-18T11:53:40.664Z,101533.76
2019-05-18T11:56:10.013Z,101533.69
2019-05-18T11:58:39.664Z,101538.92
2019-05-18T12:01:08.945Z,101542.77
2019-05-18T12:03:38.305Z,101530.44
2019-05-18T12:06:08.609Z,101539.05
2019-05-18T12:08:37.947Z,101536.38
2019-05-18T12:11:07.230Z,101532.00
2019-05-18T12:13:36.879Z,101531.05
2019-05-18T12:16:06.157Z,101532.31
2019-05-18T12:18:35.472Z,101533.36
2019-05-18T12:21:05.010Z,101537.80
2019-05-18T12:23:34.345Z,101530.73
2019-05-18T12:26:03.780Z,101529.25
2019-05-18T12:28:33.447Z,101525.39
2019-05-18T12:31:02.831Z,101522.14
2019-05-18T12:33:32.102Z,101511.08
2019-05-18T12:36:01.717Z,101516.34
2019-05-18T12:38:30.987Z,101522.80
2019-05-18T12:41:00.245Z,101535.55
2019-05-18T12:43:29.620Z,101528.00
2019-05-18T12:45:58.976Z,101525.59
2019-05-18T12:48:28.336Z,101528.04
2019-05-18T12:50:57.796Z,101525.84
2019-05-18T12:53:27.050Z,101530.58
2019-05-18T12:55:56.313Z,101522.44
2019-05-18T12:58:25.927Z,101521.73
2019-05-18T13:00:55.346Z,101524.41
2019-05-18T13:03:24.715Z,101524.20
2019-05-18T13:05:54.233Z,101522.77
2019-05-18T13:08:23.575Z,101515.42
2019-05-18T13:10:52.914Z,101505.09
2019-05-18T13:13:22.885Z,101501.70
2019-05-18T13:15:52.196Z,101497.80
2019-05-18T13:18:21.489Z,101494.72
2019-05-18T13:20:51.170Z,101489.73
2019-05-18T13:23:20.462Z,101481.05
2019-05-18T13:25:49.796Z,101482.11
2019-05-18T13:28:19.197Z,101476.12
2019-05-18T13:30:48.917Z,101481.11
2019-05-18T13:33:18.549Z,101480.38
2019-05-18T13:35:47.982Z,101488.37
2019-05-18T13:38:17.353Z,101489.11
2019-05-18T13:40:46.677Z,101485.47
2019-05-18T13:43:16.379Z,101482.86
2019-05-18T13:45:45.693Z,101480.78
2019-05-18T13:48:14.971Z,101481.25
2019-05-18T13:50:44.936Z,101479.02
2019-05-18T13:53:14.341Z,101475.56
2019-05-18T13:55:43.683Z,101473.17
2019-05-18T13:58:13.323Z,101478.72
2019-05-18T14:00:42.663Z,101476.52
2019-05-18T14:03:11.941Z,101479.67
2019-05-18T14:05:41.336Z,101476.36
2019-05-18T14:08:15.529Z,101486.84
2019-05-18T14:10:41.646Z,101489.53
2019-05-18T14:13:11.153Z,101505.35
2019-05-18T14:15:40.490Z,101505.98
2019-05-18T14:18:09.876Z,101504.94
2019-05-18T14:20:40.334Z,101503.34
2019-05-18T14:23:09.687Z,101507.86
2019-05-18T14:25:39.002Z,101512.05
2019-05-18T14:28:08.594Z,101509.09
2019-05-18T14:30:37.856Z,101503.34
2019-05-18T14:33:07.146Z,101505.28
2019-05-18T14:35:36.765Z,101498.67
2019-05-18T14:38:06.053Z,101500.65
2019-05-18T14:40:35.377Z,101503.70
2019-05-18T14:43:05.048Z,101493.73
2019-05-18T14:45:34.511Z,101498.44
2019-05-18T14:48:03.836Z,101496.30
2019-05-18T14:50:33.963Z,101479.95
2019-05-18T14:53:03.252Z,101479.39
2019-05-18T14:55:34.054Z,101466.88
2019-05-18T14:58:03.798Z,101457.57
2019-05-18T15:00:33.109Z,101455.03
2019-05-18T15:03:02.619Z,101455.66
2019-05-18T15:05:32.074Z,101450.40
2019-05-18T15:08:01.352Z,101460.22
2019-05-18T15:10:30.704Z,101456.86
2019-05-18T15:13:00.258Z,101454.52
2019-05-18T15:15:29.561Z,101451.50
2019-05-18T15:17:58.872Z,101437.85
2019-05-18T15:20:28.461Z,101438.33
2019-05-18T15:22:57.796Z,101431.14
2019-05-18T15:25:27.098Z,101434.44
2019-05-18T15:27:56.429Z,101419.78
2019-05-18T15:30:25.768Z,101422.45
2019-05-18T15:32:55.049Z,101418.72
2019-05-18T15:35:24.594Z,101413.13
2019-05-18T15:37:53.899Z,101416.41
2019-05-18T15:40:23.170Z,101420.35
2019-05-18T15:42:52.719Z,101419.72
2019-05-18T15:45:24.713Z,101409.47
2019-05-18T15:47:53.479Z,101397.44
2019-05-18T15:50:23.067Z,101397.50
2019-05-18T15:52:52.497Z,101389.27
2019-05-18T15:55:21.852Z,101391.92
2019-05-18T15:57:51.431Z,101403.59
2019-05-18T16:00:21.150Z,101399.34
2019-05-18T16:02:50.482Z,101396.72
2019-05-18T16:05:20.040Z,101384.69
2019-05-18T16:07:49.387Z,101385.98
2019-05-18T16:10:19.078Z,101381.81
2019-05-18T16:12:48.604Z,101387.06
2019-05-18T16:15:18.027Z,101373.64
2019-05-18T16:17:47.618Z,101374.23
2019-05-18T16:20:17.828Z,101375.80
2019-05-18T16:22:47.374Z,101375.28
2019-05-18T16:25:17.360Z,101376.97
2019-05-18T16:27:46.908Z,101372.12
2019-05-18T16:30:17.075Z,101372.67
2019-05-18T16:32:46.465Z,101362.87
2019-05-18T16:35:16.426Z,101358.58
2019-05-18T16:37:45.797Z,101359.78
2019-05-18T16:40:15.196Z,101363.43
2019-05-18T16:42:46.693Z,101366.66
2019-05-18T16:45:15.857Z,101369.92
2019-05-18T16:47:45.264Z,101365.65
2019-05-18T16:50:15.015Z,101371.11
2019-05-18T16:52:44.309Z,101367.09
2019-05-18T16:55:13.971Z,101373.45
2019-05-18T16:57:43.355Z,101380.34
2019-05-18T17:00:16.260Z,101369.27
2019-05-18T17:02:45.046Z,101365.86
2019-05-18T17:05:15.489Z,101362.80
2019-05-18T17:07:44.937Z,101357.11
2019-05-18T17:10:15.189Z,101351.49
2019-05-18T17:12:44.559Z,101351.35
2019-05-18T17:15:14.331Z,101355.75
2019-05-18T17:17:43.833Z,101359.22
2019-05-18T17:20:13.729Z,101367.05
2019-05-18T17:22:43.013Z,101363.21
2019-05-18T17:25:12.578Z,101361.01
2019-05-18T17:27:42.194Z,101355.23
2019-05-18T17:30:11.772Z,101353.94
2019-05-18T17:32:41.156Z,101360.80
2019-05-18T17:35:11.435Z,101363.85
2019-05-18T17:37:40.800Z,101356.84
2019-05-18T17:40:11.517Z,101356.05
2019-05-18T17:42:40.848Z,101360.20
2019-05-18T17:45:11.090Z,101365.16
2019-05-18T17:47:40.473Z,101365.26
2019-05-18T17:50:10.371Z,101369.73
2019-05-18T17:52:39.669Z,101365.05
2019-05-18T17:55:09.384Z,101367.34
2019-05-18T17:57:38.728Z,101370.99
2019-05-18T18:00:08.551Z,101364.38
2019-05-18T18:02:38.058Z,101378.84
2019-05-18T18:05:07.613Z,101372.73
2019-05-18T18:07:36.922Z,101373.25
2019-05-18T18:10:06.964Z,101371.61
2019-05-18T18:12:36.519Z,101370.86
2019-05-18T18:15:06.800Z,101365.14
2019-05-18T18:17:36.511Z,101369.29
2019-05-18T18:20:06.513Z,101362.42
2019-05-18T18:22:35.850Z,101372.37
2019-05-18T18:25:05.904Z,101372.69
2019-05-18T18:27:35.270Z,101371.09
2019-05-18T18:30:05.614Z,101370.89
2019-05-18T18:32:35.297Z,101372.58
2019-05-18T18:35:04.720Z,101373.44
2019-05-18T18:37:34.009Z,101377.59
2019-05-18T18:40:03.392Z,101378.67
2019-05-18T18:42:32.763Z,101371.59
2019-05-18T18:45:02.252Z,101371.03
2019-05-18T18:47:31.732Z,101377.16
2019-05-18T18:50:01.213Z,101376.09
2019-05-18T18:52:30.494Z,101378.30
2019-05-18T18:55:00.041Z,101369.48
2019-05-18T18:57:40.665Z,101370.86
2019-05-18T19:00:00.649Z,101375.01
2019-05-18T19:02:30.104Z,101372.28
2019-05-18T19:04:59.521Z,101375.90
2019-05-18T19:07:28.890Z,101378.17
2019-05-18T19:09:58.381Z,101383.95
2019-05-18T19:12:27.887Z,101382.57
2019-05-18T19:14:57.197Z,101383.69
2019-05-18T19:17:26.656Z,101393.63
2019-05-18T19:19:56.067Z,101397.20
2019-05-18T19:22:25.429Z,101402.44
2019-05-18T19:24:55.868Z,101400.27
2019-05-18T19:27:25.311Z,101395.85
2019-05-18T19:29:54.597Z,101394.50
2019-05-18T19:32:24.093Z,101392.32
2019-05-18T19:34:53.393Z,101392.05
2019-05-18T19:37:26.274Z,101383.50
2019-05-18T19:39:53.865Z,101386.26
2019-05-18T19:42:23.240Z,101388.75
2019-05-18T19:44:52.510Z,101388.48
2019-05-18T19:47:22.148Z,101385.19
2019-05-18T19:49:51.621Z,101384.63
2019-05-18T19:52:21.017Z,101383.55
2019-05-18T19:54:50.542Z,101390.16
2019-05-18T19:57:19.891Z,101385.19
2019-05-18T19:59:49.315Z,101389.34
2019-05-18T20:02:19.257Z,101394.30
2019-05-18T20:05:05.830Z,101391.27
2019-05-18T20:07:19.832Z,101387.11
2019-05-18T20:09:49.229Z,101390.70
2019-05-18T20:12:18.609Z,101400.06
2019-05-18T20:14:48.331Z,101399.80
2019-05-18T20:17:17.977Z,101400.89
2019-05-18T20:19:47.493Z,101409.73
2019-05-18T20:22:17.235Z,101408.06
2019-05-18T20:24:46.559Z,101411.94
2019-05-18T20:27:16.165Z,101408.62
2019-05-18T20:29:46.082Z,101408.06
2019-05-18T20:32:15.412Z,101401.72
2019-05-18T20:34:44.775Z,101401.69
2019-05-18T20:37:14.390Z,101403.91
2019-05-18T20:39:43.671Z,101401.95
2019-05-18T20:42:13.167Z,101406.37
2019-05-18T20:44:42.918Z,101405.81
2019-05-18T20:47:12.244Z,101401.88
2019-05-18T20:49:41.707Z,101397.73
2019-05-18T20:52:11.438Z,101395.80
2019-05-18T20:54:40.746Z,101401.62
2019-05-18T20:57:10.102Z,101406.58
2019-05-18T20:59:39.772Z,101403.00
2019-05-18T21:02:09.077Z,101404.94
2019-05-18T21:04:38.598Z,101406.87
2019-05-18T21:07:08.159Z,101401.88
2019-05-18T21:09:37.653Z,101401.62
2019-05-18T21:12:07.204Z,101406.05
2019-05-18T21:14:36.667Z,101405.79
2019-05-18T21:17:06.140Z,101403.31
2019-05-18T21:19:35.586Z,101399.76
2019-05-18T21:22:05.110Z,101396.17
2019-05-18T21:24:34.420Z,101397.79
2019-05-18T21:27:03.789Z,101393.36
2019-05-18T21:29:33.405Z,101399.73
2019-05-18T21:32:02.853Z,101386.74
2019-05-18T21:34:32.291Z,101393.95
2019-05-18T21:37:01.746Z,101394.21
2019-05-18T21:39:31.055Z,101398.05
2019-05-18T21:42:00.448Z,101389.22
2019-05-18T21:44:29.775Z,101391.69
2019-05-18T21:46:59.106Z,101392.27
2019-05-18T21:49:28.675Z,101391.45
2019-05-18T21:51:57.961Z,101386.48
2019-05-18T21:54:27.328Z,101379.87
2019-05-18T21:56:57.123Z,101382.63
2019-05-18T21:59:26.670Z,101381.28
2019-05-18T22:01:56.012Z,101378.52
2019-05-18T22:04:25.385Z,101376.60
2019-05-18T22:06:54.886Z,101369.45
2019-05-18T22:09:24.527Z,101365.55
2019-05-18T22:11:54.119Z,101365.03
2019-05-18T22:14:23.475Z,101359.51
2019-05-18T22:16:52.789Z,101357.27
2019-05-18T22:19:22.203Z,101357.56
2019-05-18T22:21:51.660Z,101352.84
2019-05-18T22:24:21.180Z,101345.64
2019-05-18T22:26:50.802Z,101348.14
2019-05-18T22:29:20.423Z,101345.34
2019-05-18T22:31:49.801Z,101343.15
2019-05-18T22:34:19.387Z,101326.55
2019-05-18T22:36:48.821Z,101332.10
2019-05-18T22:39:18.174Z,101322.73
2019-05-18T22:41:47.657Z,101329.34
2019-05-18T22:44:17.149Z,101331.55
2019-05-18T22:46:46.452Z,101325.72
2019-05-18T22:49:15.762Z,101326.28
2019-05-18T22:51:45.285Z,101323.23
2019-05-18T22:54:14.577Z,101322.63
2019-05-18T22:56:43.957Z,101327.03
2019-05-18T22:59:13.429Z,101329.49
2019-05-18T23:01:42.754Z,101335.81
2019-05-18T23:04:12.163Z,101336.11
2019-05-18T23:06:41.656Z,101340.25
2019-05-18T23:09:11.006Z,101331.97
2019-05-18T23:11:40.428Z,101329.50
2019-05-18T23:14:10.089Z,101335.06
2019-05-18T23:16:39.464Z,101337.27
2019-05-18T23:19:08.844Z,101341.70
2019-05-18T23:21:38.303Z,101342.82
2019-05-18T23:24:07.690Z,101344.20
2019-05-18T23:26:37.526Z,101333.45
2019-05-18T23:29:07.157Z,101335.69
2019-05-18T23:31:36.447Z,101338.45
2019-05-18T23:34:05.825Z,101338.74
2019-05-18T23:36:35.282Z,101347.61
2019-05-18T23:39:05.721Z,101345.12
2019-05-18T23:41:35.219Z,101352.31
2019-05-18T23:44:04.832Z,101353.13
2019-05-18T23:46:34.116Z,101343.50
2019-05-18T23:49:11.056Z,101337.15
2019-05-18T23:51:34.917Z,101343.52
2019-05-18T23:54:04.181Z,101346.84
2019-05-18T23:56:33.549Z,101343.52
2019-05-18T23:59:03.061Z,101339.38
